<?xml version="1.0" encoding="utf-8"?>
<gpx xmlns:xsi="http://www.w3.org/2001/XMLSchema-instance" xmlns:xsd="http://www.w3.org/2001/XMLSchema" version="1.1" creator="Shapelink.com" xmlns="http://www.topografix.com/GPX/1/1" xmlns:gpxtpx="http://www.garmin.com/xmlschemas/TrackPointExtension/v1">
  <metadata>
    <name>Alpine skiing 12.54 km, 2019-01-23</name>
    <desc></desc>
    <author><name>Stefan Östlund</name></author> 
    <time>2019-01-23T19:22:00Z</time>
  </metadata>
  <trk>
    <name>Alpine skiing 12.54 km, 2019-01-23</name>
    <trkseg>
      <trkpt lat="60.078170393897" lon="15.889561711213">
        <ele>197.8</ele>
        <time>2019-01-23T19:22:00Z</time>
      </trkpt>
      <trkpt lat="60.078191348647" lon="15.889542013748">
        <ele>197.6</ele>
        <time>2019-01-23T19:22:01Z</time>
      </trkpt>
      <trkpt lat="60.078231833224" lon="15.889522986835">
        <ele>197.4</ele>
        <time>2019-01-23T19:22:03Z</time>
      </trkpt>
      <trkpt lat="60.078320429907" lon="15.889609990957">
        <ele>196.8</ele>
        <time>2019-01-23T19:22:07Z</time>
      </trkpt>
      <trkpt lat="60.078336355517" lon="15.88963153244">
        <ele>196.4</ele>
        <time>2019-01-23T19:22:08Z</time>
      </trkpt>
      <trkpt lat="60.07834532415" lon="15.889652235733">
        <ele>196</ele>
        <time>2019-01-23T19:22:09Z</time>
      </trkpt>
      <trkpt lat="60.078352197308" lon="15.889677381433">
        <ele>195.2</ele>
        <time>2019-01-23T19:22:11Z</time>
      </trkpt>
      <trkpt lat="60.078361501217" lon="15.889673693397">
        <ele>195</ele>
        <time>2019-01-23T19:22:13Z</time>
      </trkpt>
      <trkpt lat="60.078466526424" lon="15.889933448478">
        <ele>192.8</ele>
        <time>2019-01-23T19:22:49Z</time>
      </trkpt>
      <trkpt lat="60.078503909698" lon="15.890013244166">
        <ele>192.2</ele>
        <time>2019-01-23T19:22:52Z</time>
      </trkpt>
      <trkpt lat="60.078497371816" lon="15.890077365701">
        <ele>191.6</ele>
        <time>2019-01-23T19:22:54Z</time>
      </trkpt>
      <trkpt lat="60.078527043742" lon="15.890137212467">
        <ele>190.8</ele>
        <time>2019-01-23T19:23:00Z</time>
      </trkpt>
      <trkpt lat="60.078549758691" lon="15.890163196357">
        <ele>190.8</ele>
        <time>2019-01-23T19:23:02Z</time>
      </trkpt>
      <trkpt lat="60.078562750636" lon="15.890194125568">
        <ele>190.6</ele>
        <time>2019-01-23T19:23:03Z</time>
      </trkpt>
      <trkpt lat="60.078608683448" lon="15.890451030803">
        <ele>190</ele>
        <time>2019-01-23T19:23:07Z</time>
      </trkpt>
      <trkpt lat="60.078617903538" lon="15.890545662454">
        <ele>189.6</ele>
        <time>2019-01-23T19:23:08Z</time>
      </trkpt>
      <trkpt lat="60.078615137511" lon="15.890709360961">
        <ele>188.2</ele>
        <time>2019-01-23T19:23:10Z</time>
      </trkpt>
      <trkpt lat="60.078594518037" lon="15.890842046438">
        <ele>186.2</ele>
        <time>2019-01-23T19:23:12Z</time>
      </trkpt>
      <trkpt lat="60.078574233839" lon="15.890886805784">
        <ele>185</ele>
        <time>2019-01-23T19:23:13Z</time>
      </trkpt>
      <trkpt lat="60.0785506807" lon="15.890930307845">
        <ele>183.8</ele>
        <time>2019-01-23T19:23:14Z</time>
      </trkpt>
      <trkpt lat="60.078503574422" lon="15.890989903154">
        <ele>182.6</ele>
        <time>2019-01-23T19:23:16Z</time>
      </trkpt>
      <trkpt lat="60.078454540307" lon="15.89113105435">
        <ele>181.8</ele>
        <time>2019-01-23T19:23:19Z</time>
      </trkpt>
      <trkpt lat="60.078440207258" lon="15.891303134757">
        <ele>181.4</ele>
        <time>2019-01-23T19:23:21Z</time>
      </trkpt>
      <trkpt lat="60.078455462316" lon="15.891549730255">
        <ele>180.2</ele>
        <time>2019-01-23T19:23:23Z</time>
      </trkpt>
      <trkpt lat="60.078486056251" lon="15.891692222555">
        <ele>179</ele>
        <time>2019-01-23T19:23:24Z</time>
      </trkpt>
      <trkpt lat="60.078517739833" lon="15.891850640465">
        <ele>177.8</ele>
        <time>2019-01-23T19:23:25Z</time>
      </trkpt>
      <trkpt lat="60.078552776175" lon="15.89202540308">
        <ele>175.8</ele>
        <time>2019-01-23T19:23:26Z</time>
      </trkpt>
      <trkpt lat="60.078578927703" lon="15.89221986316">
        <ele>173.8</ele>
        <time>2019-01-23T19:23:27Z</time>
      </trkpt>
      <trkpt lat="60.078590494725" lon="15.892410048471">
        <ele>171.8</ele>
        <time>2019-01-23T19:23:28Z</time>
      </trkpt>
      <trkpt lat="60.078617903538" lon="15.892601155791">
        <ele>169.8</ele>
        <time>2019-01-23T19:23:29Z</time>
      </trkpt>
      <trkpt lat="60.078657633744" lon="15.892823862874">
        <ele>167.2</ele>
        <time>2019-01-23T19:23:30Z</time>
      </trkpt>
      <trkpt lat="60.078711110266" lon="15.893041708455">
        <ele>164.2</ele>
        <time>2019-01-23T19:23:31Z</time>
      </trkpt>
      <trkpt lat="60.078775567077" lon="15.893244634254">
        <ele>161</ele>
        <time>2019-01-23T19:23:32Z</time>
      </trkpt>
      <trkpt lat="60.078847064684" lon="15.893420067421">
        <ele>158</ele>
        <time>2019-01-23T19:23:33Z</time>
      </trkpt>
      <trkpt lat="60.078933230616" lon="15.893507574457">
        <ele>154.6</ele>
        <time>2019-01-23T19:23:34Z</time>
      </trkpt>
      <trkpt lat="60.078996011047" lon="15.89354420336">
        <ele>152</ele>
        <time>2019-01-23T19:23:35Z</time>
      </trkpt>
      <trkpt lat="60.079055606356" lon="15.893559123142">
        <ele>149.6</ele>
        <time>2019-01-23T19:23:36Z</time>
      </trkpt>
      <trkpt lat="60.079095420381" lon="15.893571276897">
        <ele>147.6</ele>
        <time>2019-01-23T19:23:37Z</time>
      </trkpt>
      <trkpt lat="60.079120985176" lon="15.893557949676">
        <ele>146</ele>
        <time>2019-01-23T19:23:38Z</time>
      </trkpt>
      <trkpt lat="60.079165744522" lon="15.893528780664">
        <ele>144.6</ele>
        <time>2019-01-23T19:23:40Z</time>
      </trkpt>
      <trkpt lat="60.0792631422" lon="15.893486619707">
        <ele>144.6</ele>
        <time>2019-01-23T19:23:46Z</time>
      </trkpt>
      <trkpt lat="60.079283594036" lon="15.89347630997">
        <ele>144.4</ele>
        <time>2019-01-23T19:23:48Z</time>
      </trkpt>
      <trkpt lat="60.07810224905" lon="15.890182977641">
        <ele>199.4</ele>
        <time>2019-01-23T19:38:05Z</time>
      </trkpt>
      <trkpt lat="60.078101159403" lon="15.890246596262">
        <ele>199.2</ele>
        <time>2019-01-23T19:38:08Z</time>
      </trkpt>
      <trkpt lat="60.078151534622" lon="15.889586689275">
        <ele>210.4</ele>
        <time>2019-01-23T19:44:31Z</time>
      </trkpt>
      <trkpt lat="60.078253039431" lon="15.889478562765">
        <ele>209.8</ele>
        <time>2019-01-23T19:44:37Z</time>
      </trkpt>
      <trkpt lat="60.078300983899" lon="15.88950664213">
        <ele>209.4</ele>
        <time>2019-01-23T19:44:39Z</time>
      </trkpt>
      <trkpt lat="60.078329063264" lon="15.889552072028">
        <ele>209.2</ele>
        <time>2019-01-23T19:44:40Z</time>
      </trkpt>
      <trkpt lat="60.078408020762" lon="15.889739491312">
        <ele>208.6</ele>
        <time>2019-01-23T19:44:43Z</time>
      </trkpt>
      <trkpt lat="60.078442973285" lon="15.889820460466">
        <ele>208.2</ele>
        <time>2019-01-23T19:44:44Z</time>
      </trkpt>
      <trkpt lat="60.078459820904" lon="15.889914337746">
        <ele>207.6</ele>
        <time>2019-01-23T19:44:45Z</time>
      </trkpt>
      <trkpt lat="60.078465855872" lon="15.890004359352">
        <ele>206.8</ele>
        <time>2019-01-23T19:44:46Z</time>
      </trkpt>
      <trkpt lat="60.078485385699" lon="15.890081053737">
        <ele>206</ele>
        <time>2019-01-23T19:44:47Z</time>
      </trkpt>
      <trkpt lat="60.078516063453" lon="15.890144420901">
        <ele>205.2</ele>
        <time>2019-01-23T19:44:48Z</time>
      </trkpt>
      <trkpt lat="60.078583789205" lon="15.890290517418">
        <ele>204.2</ele>
        <time>2019-01-23T19:44:50Z</time>
      </trkpt>
      <trkpt lat="60.078623267954" lon="15.890469051888">
        <ele>203</ele>
        <time>2019-01-23T19:44:52Z</time>
      </trkpt>
      <trkpt lat="60.078636008442" lon="15.890597043501">
        <ele>201</ele>
        <time>2019-01-23T19:44:54Z</time>
      </trkpt>
      <trkpt lat="60.078628883827" lon="15.890612047102">
        <ele>199.8</ele>
        <time>2019-01-23T19:44:55Z</time>
      </trkpt>
      <trkpt lat="60.078621843031" lon="15.890656303534">
        <ele>198.6</ele>
        <time>2019-01-23T19:44:57Z</time>
      </trkpt>
      <trkpt lat="60.078626369257" lon="15.890670217488">
        <ele>197.2</ele>
        <time>2019-01-23T19:45:01Z</time>
      </trkpt>
      <trkpt lat="60.078625531067" lon="15.890673234972">
        <ele>196.8</ele>
        <time>2019-01-23T19:45:03Z</time>
      </trkpt>
      <trkpt lat="60.078508687381" lon="15.891084450986">
        <ele>195.4</ele>
        <time>2019-01-23T19:45:15Z</time>
      </trkpt>
      <trkpt lat="60.078448505339" lon="15.891235157548">
        <ele>194.2</ele>
        <time>2019-01-23T19:45:17Z</time>
      </trkpt>
      <trkpt lat="60.078452528651" lon="15.891523830184">
        <ele>192.4</ele>
        <time>2019-01-23T19:45:19Z</time>
      </trkpt>
      <trkpt lat="60.078471304107" lon="15.891895399811">
        <ele>190.4</ele>
        <time>2019-01-23T19:45:21Z</time>
      </trkpt>
      <trkpt lat="60.078492091219" lon="15.892119699455">
        <ele>188.4</ele>
        <time>2019-01-23T19:45:22Z</time>
      </trkpt>
      <trkpt lat="60.078488487002" lon="15.892334527552">
        <ele>186</ele>
        <time>2019-01-23T19:45:23Z</time>
      </trkpt>
      <trkpt lat="60.078512459236" lon="15.892525215777">
        <ele>183.2</ele>
        <time>2019-01-23T19:45:24Z</time>
      </trkpt>
      <trkpt lat="60.078590997639" lon="15.892690171569">
        <ele>181</ele>
        <time>2019-01-23T19:45:25Z</time>
      </trkpt>
      <trkpt lat="60.078662662884" lon="15.892882955269">
        <ele>178.8</ele>
        <time>2019-01-23T19:45:26Z</time>
      </trkpt>
      <trkpt lat="60.078725275677" lon="15.893080851928">
        <ele>176.4</ele>
        <time>2019-01-23T19:45:27Z</time>
      </trkpt>
      <trkpt lat="60.078801467148" lon="15.89326257152">
        <ele>173.2</ele>
        <time>2019-01-23T19:45:28Z</time>
      </trkpt>
      <trkpt lat="60.078877490981" lon="15.893408584218">
        <ele>170.2</ele>
        <time>2019-01-23T19:45:29Z</time>
      </trkpt>
      <trkpt lat="60.078981929455" lon="15.8934486497">
        <ele>166.8</ele>
        <time>2019-01-23T19:45:30Z</time>
      </trkpt>
      <trkpt lat="60.079061808962" lon="15.893495839797">
        <ele>164.2</ele>
        <time>2019-01-23T19:45:31Z</time>
      </trkpt>
      <trkpt lat="60.079119057339" lon="15.893518135651">
        <ele>162</ele>
        <time>2019-01-23T19:45:32Z</time>
      </trkpt>
      <trkpt lat="60.079158033174" lon="15.8934821773">
        <ele>160</ele>
        <time>2019-01-23T19:45:33Z</time>
      </trkpt>
      <trkpt lat="60.079187286005" lon="15.893471113192">
        <ele>158.4</ele>
        <time>2019-01-23T19:45:34Z</time>
      </trkpt>
      <trkpt lat="60.07922542365" lon="15.893478992178">
        <ele>156.8</ele>
        <time>2019-01-23T19:45:36Z</time>
      </trkpt>
      <trkpt lat="60.079230620428" lon="15.893472789572">
        <ele>156.4</ele>
        <time>2019-01-23T19:45:37Z</time>
      </trkpt>
      <trkpt lat="60.079231123342" lon="15.89347295721">
        <ele>156.2</ele>
        <time>2019-01-23T19:45:39Z</time>
      </trkpt>
      <trkpt lat="60.079230117514" lon="15.893466922242">
        <ele>156.4</ele>
        <time>2019-01-23T19:45:42Z</time>
      </trkpt>
      <trkpt lat="60.078349598919" lon="15.890700895242">
        <ele>208</ele>
        <time>2019-01-23T19:50:32Z</time>
      </trkpt>
      <trkpt lat="60.07840064469" lon="15.890866018672">
        <ele>206.4</ele>
        <time>2019-01-23T19:50:33Z</time>
      </trkpt>
      <trkpt lat="60.078443140923" lon="15.891031561197">
        <ele>204</ele>
        <time>2019-01-23T19:50:34Z</time>
      </trkpt>
      <trkpt lat="60.078479099274" lon="15.891194589152">
        <ele>201.2</ele>
        <time>2019-01-23T19:50:35Z</time>
      </trkpt>
      <trkpt lat="60.078512543055" lon="15.891351665958">
        <ele>198</ele>
        <time>2019-01-23T19:50:36Z</time>
      </trkpt>
      <trkpt lat="60.078550848338" lon="15.891517543759">
        <ele>195.6</ele>
        <time>2019-01-23T19:50:37Z</time>
      </trkpt>
      <trkpt lat="60.078579095341" lon="15.891698592799">
        <ele>193</ele>
        <time>2019-01-23T19:50:38Z</time>
      </trkpt>
      <trkpt lat="60.07860181029" lon="15.891910151955">
        <ele>190.2</ele>
        <time>2019-01-23T19:50:39Z</time>
      </trkpt>
      <trkpt lat="60.078650509129" lon="15.891121415165">
        <ele>188</ele>
        <time>2019-01-23T20:07:45Z</time>
      </trkpt>
      <trkpt lat="60.07828832723" lon="15.890514230329">
        <ele>207.8</ele>
        <time>2019-01-23T20:09:17Z</time>
      </trkpt>
      <trkpt lat="60.07831263474" lon="15.890615399862">
        <ele>206.8</ele>
        <time>2019-01-23T20:09:18Z</time>
      </trkpt>
      <trkpt lat="60.078359154285" lon="15.890712043169">
        <ele>205.4</ele>
        <time>2019-01-23T20:09:19Z</time>
      </trkpt>
      <trkpt lat="60.078405590011" lon="15.890804914621">
        <ele>203.8</ele>
        <time>2019-01-23T20:09:20Z</time>
      </trkpt>
      <trkpt lat="60.078424197829" lon="15.890894433313">
        <ele>201.8</ele>
        <time>2019-01-23T20:09:21Z</time>
      </trkpt>
      <trkpt lat="60.078439117611" lon="15.89095587264">
        <ele>199.8</ele>
        <time>2019-01-23T20:09:22Z</time>
      </trkpt>
      <trkpt lat="60.078447248054" lon="15.890995016113">
        <ele>197.8</ele>
        <time>2019-01-23T20:09:23Z</time>
      </trkpt>
      <trkpt lat="60.078441380724" lon="15.891031980292">
        <ele>196.4</ele>
        <time>2019-01-23T20:09:24Z</time>
      </trkpt>
      <trkpt lat="60.078409194228" lon="15.891089647764">
        <ele>194.6</ele>
        <time>2019-01-23T20:09:26Z</time>
      </trkpt>
      <trkpt lat="60.078405422373" lon="15.891097778207">
        <ele>193.2</ele>
        <time>2019-01-23T20:09:28Z</time>
      </trkpt>
      <trkpt lat="60.078406009106" lon="15.891096604741">
        <ele>192.8</ele>
        <time>2019-01-23T20:09:29Z</time>
      </trkpt>
      <trkpt lat="60.078412714626" lon="15.891098448759">
        <ele>192.4</ele>
        <time>2019-01-23T20:09:33Z</time>
      </trkpt>
      <trkpt lat="60.078489828106" lon="15.891630531771">
        <ele>190.6</ele>
        <time>2019-01-23T20:09:45Z</time>
      </trkpt>
      <trkpt lat="60.078498545282" lon="15.891829098982">
        <ele>189.2</ele>
        <time>2019-01-23T20:09:46Z</time>
      </trkpt>
      <trkpt lat="60.07850122749" lon="15.892029510211">
        <ele>187.6</ele>
        <time>2019-01-23T20:09:47Z</time>
      </trkpt>
      <trkpt lat="60.078508435924" lon="15.892236794598">
        <ele>185.8</ele>
        <time>2019-01-23T20:09:48Z</time>
      </trkpt>
      <trkpt lat="60.078527295199" lon="15.892476433119">
        <ele>183.8</ele>
        <time>2019-01-23T20:09:49Z</time>
      </trkpt>
      <trkpt lat="60.078544394275" lon="15.892708611749">
        <ele>181.8</ele>
        <time>2019-01-23T20:09:50Z</time>
      </trkpt>
      <trkpt lat="60.078597703159" lon="15.89291639905">
        <ele>179.2</ele>
        <time>2019-01-23T20:09:51Z</time>
      </trkpt>
      <trkpt lat="60.07866635092" lon="15.893130724233">
        <ele>176</ele>
        <time>2019-01-23T20:09:52Z</time>
      </trkpt>
      <trkpt lat="60.07872753879" lon="15.893315628947">
        <ele>172.8</ele>
        <time>2019-01-23T20:09:53Z</time>
      </trkpt>
      <trkpt lat="60.078797360017" lon="15.893477483436">
        <ele>169.2</ele>
        <time>2019-01-23T20:09:54Z</time>
      </trkpt>
      <trkpt lat="60.078836252033" lon="15.893626513618">
        <ele>165.2</ele>
        <time>2019-01-23T20:09:55Z</time>
      </trkpt>
      <trkpt lat="60.078852261462" lon="15.893746374788">
        <ele>161</ele>
        <time>2019-01-23T20:09:56Z</time>
      </trkpt>
      <trkpt lat="60.078853434928" lon="15.893794067799">
        <ele>157.6</ele>
        <time>2019-01-23T20:09:57Z</time>
      </trkpt>
      <trkpt lat="60.078847148503" lon="15.893776298171">
        <ele>156</ele>
        <time>2019-01-23T20:09:58Z</time>
      </trkpt>
      <trkpt lat="60.078837593137" lon="15.893740675096">
        <ele>154.6</ele>
        <time>2019-01-23T20:10:00Z</time>
      </trkpt>
      <trkpt lat="60.078832144902" lon="15.893714188292">
        <ele>154.2</ele>
        <time>2019-01-23T20:10:03Z</time>
      </trkpt>
      <trkpt lat="60.07883315073" lon="15.893713014826">
        <ele>154</ele>
        <time>2019-01-23T20:10:05Z</time>
      </trkpt>
      <trkpt lat="60.078142146894" lon="15.890343826302">
        <ele>207</ele>
        <time>2019-01-23T20:15:30Z</time>
      </trkpt>
      <trkpt lat="60.078307521781" lon="15.890736183041">
        <ele>205.6</ele>
        <time>2019-01-23T20:15:34Z</time>
      </trkpt>
      <trkpt lat="60.078360663027" lon="15.890881776644">
        <ele>204.8</ele>
        <time>2019-01-23T20:15:35Z</time>
      </trkpt>
      <trkpt lat="60.078393687713" lon="15.891032231749">
        <ele>203.4</ele>
        <time>2019-01-23T20:15:36Z</time>
      </trkpt>
      <trkpt lat="60.078423611096" lon="15.891173299126">
        <ele>201</ele>
        <time>2019-01-23T20:15:37Z</time>
      </trkpt>
      <trkpt lat="60.078449594986" lon="15.891315623788">
        <ele>197.6</ele>
        <time>2019-01-23T20:15:38Z</time>
      </trkpt>
      <trkpt lat="60.07846602351" lon="15.891472700594">
        <ele>194.6</ele>
        <time>2019-01-23T20:15:39Z</time>
      </trkpt>
      <trkpt lat="60.07848530188" lon="15.891640590051">
        <ele>192</ele>
        <time>2019-01-23T20:15:40Z</time>
      </trkpt>
      <trkpt lat="60.07852637319" lon="15.891825578584">
        <ele>189.6</ele>
        <time>2019-01-23T20:15:41Z</time>
      </trkpt>
      <trkpt lat="60.078562582998" lon="15.892032276238">
        <ele>187.6</ele>
        <time>2019-01-23T20:15:42Z</time>
      </trkpt>
      <trkpt lat="60.078582615739" lon="15.892237297512">
        <ele>186</ele>
        <time>2019-01-23T20:15:43Z</time>
      </trkpt>
      <trkpt lat="60.078635086433" lon="15.892420358208">
        <ele>184.2</ele>
        <time>2019-01-23T20:15:44Z</time>
      </trkpt>
      <trkpt lat="60.078696358122" lon="15.892608867139">
        <ele>182.2</ele>
        <time>2019-01-23T20:15:45Z</time>
      </trkpt>
      <trkpt lat="60.078739189631" lon="15.892815145698">
        <ele>179.6</ele>
        <time>2019-01-23T20:15:46Z</time>
      </trkpt>
      <trkpt lat="60.078805071365" lon="15.893006169199">
        <ele>175.4</ele>
        <time>2019-01-23T20:15:47Z</time>
      </trkpt>
      <trkpt lat="60.078878245352" lon="15.893199120537">
        <ele>170.6</ele>
        <time>2019-01-23T20:15:48Z</time>
      </trkpt>
      <trkpt lat="60.078938511213" lon="15.893386204545">
        <ele>166</ele>
        <time>2019-01-23T20:15:49Z</time>
      </trkpt>
      <trkpt lat="60.079017720168" lon="15.893494917788">
        <ele>163.2</ele>
        <time>2019-01-23T20:15:50Z</time>
      </trkpt>
      <trkpt lat="60.079087625214" lon="15.893506065715">
        <ele>161</ele>
        <time>2019-01-23T20:15:51Z</time>
      </trkpt>
      <trkpt lat="60.079133893302" lon="15.893519812031">
        <ele>158.8</ele>
        <time>2019-01-23T20:15:52Z</time>
      </trkpt>
      <trkpt lat="60.079165828341" lon="15.893557782038">
        <ele>156.6</ele>
        <time>2019-01-23T20:15:53Z</time>
      </trkpt>
      <trkpt lat="60.079184855254" lon="15.893586783412">
        <ele>155.2</ele>
        <time>2019-01-23T20:15:54Z</time>
      </trkpt>
      <trkpt lat="60.079218047578" lon="15.893600445909">
        <ele>153.8</ele>
        <time>2019-01-23T20:15:56Z</time>
      </trkpt>
      <trkpt lat="60.079255011757" lon="15.893594913855">
        <ele>152.8</ele>
        <time>2019-01-23T20:16:02Z</time>
      </trkpt>
      <trkpt lat="60.079252916282" lon="15.893595835864">
        <ele>152.6</ele>
        <time>2019-01-23T20:16:05Z</time>
      </trkpt>
      <trkpt lat="60.079290131918" lon="15.893854501298">
        <ele>151.4</ele>
        <time>2019-01-23T20:18:27Z</time>
      </trkpt>
      <trkpt lat="60.079255011757" lon="15.893877551523">
        <ele>151.6</ele>
        <time>2019-01-23T20:18:31Z</time>
      </trkpt>
      <trkpt lat="60.071869384391" lon="15.898881126728">
        <ele>143.8</ele>
        <time>2019-01-23T20:37:54Z</time>
      </trkpt>
      <trkpt lat="60.071412403203" lon="15.899335844803">
        <ele>143.6</ele>
        <time>2019-01-23T20:37:59Z</time>
      </trkpt>
      <trkpt lat="60.070981741181" lon="15.899740606754">
        <ele>143.4</ele>
        <time>2019-01-23T20:38:03Z</time>
      </trkpt>
      <trkpt lat="60.070543032535" lon="15.900179566857">
        <ele>144</ele>
        <time>2019-01-23T20:38:07Z</time>
      </trkpt>
      <trkpt lat="60.070339520003" lon="15.900402106302">
        <ele>145</ele>
        <time>2019-01-23T20:38:09Z</time>
      </trkpt>
      <trkpt lat="60.070155285841" lon="15.900608217223">
        <ele>146.2</ele>
        <time>2019-01-23T20:38:11Z</time>
      </trkpt>
      <trkpt lat="60.069680535025" lon="15.901128900851">
        <ele>147</ele>
        <time>2019-01-23T20:38:16Z</time>
      </trkpt>
      <trkpt lat="60.069254650686" lon="15.90143408583">
        <ele>146</ele>
        <time>2019-01-23T20:38:20Z</time>
      </trkpt>
      <trkpt lat="60.068890373312" lon="15.901553360267">
        <ele>144.6</ele>
        <time>2019-01-23T20:38:23Z</time>
      </trkpt>
      <trkpt lat="60.068642520529" lon="15.901666013003">
        <ele>143.6</ele>
        <time>2019-01-23T20:38:25Z</time>
      </trkpt>
      <trkpt lat="60.068185958436" lon="15.902086281469">
        <ele>142.8</ele>
        <time>2019-01-23T20:38:29Z</time>
      </trkpt>
      <trkpt lat="60.068091159147" lon="15.902226259199">
        <ele>143</ele>
        <time>2019-01-23T20:38:30Z</time>
      </trkpt>
      <trkpt lat="60.067941626051" lon="15.902514009826">
        <ele>143.8</ele>
        <time>2019-01-23T20:38:32Z</time>
      </trkpt>
      <trkpt lat="60.067828302763" lon="15.902853057681">
        <ele>144.8</ele>
        <time>2019-01-23T20:38:34Z</time>
      </trkpt>
      <trkpt lat="60.067728558153" lon="15.903222028919">
        <ele>145.8</ele>
        <time>2019-01-23T20:38:36Z</time>
      </trkpt>
      <trkpt lat="60.067493864953" lon="15.903994840099">
        <ele>146.8</ele>
        <time>2019-01-23T20:38:40Z</time>
      </trkpt>
      <trkpt lat="60.067205276136" lon="15.904782487242">
        <ele>146.2</ele>
        <time>2019-01-23T20:38:44Z</time>
      </trkpt>
      <trkpt lat="60.066937893526" lon="15.905560998114">
        <ele>144.8</ele>
        <time>2019-01-23T20:38:48Z</time>
      </trkpt>
      <trkpt lat="60.066676629703" lon="15.906458448147">
        <ele>144.4</ele>
        <time>2019-01-23T20:38:53Z</time>
      </trkpt>
      <trkpt lat="60.066553499592" lon="15.906742091643">
        <ele>144.4</ele>
        <time>2019-01-23T20:38:55Z</time>
      </trkpt>
      <trkpt lat="60.066191988245" lon="15.907242155797">
        <ele>143.6</ele>
        <time>2019-01-23T20:38:59Z</time>
      </trkpt>
      <trkpt lat="60.065889401655" lon="15.907626298274">
        <ele>142.6</ele>
        <time>2019-01-23T20:39:02Z</time>
      </trkpt>
      <trkpt lat="60.065697623783" lon="15.907910612322">
        <ele>140.6</ele>
        <time>2019-01-23T20:39:04Z</time>
      </trkpt>
      <trkpt lat="60.065550437619" lon="15.90820749922">
        <ele>139.4</ele>
        <time>2019-01-23T20:39:06Z</time>
      </trkpt>
      <trkpt lat="60.065258412223" lon="15.908958936555">
        <ele>139</ele>
        <time>2019-01-23T20:39:11Z</time>
      </trkpt>
      <trkpt lat="60.064952640511" lon="15.909761000566">
        <ele>139.2</ele>
        <time>2019-01-23T20:39:16Z</time>
      </trkpt>
      <trkpt lat="60.064731945084" lon="15.910183280688">
        <ele>138.8</ele>
        <time>2019-01-23T20:39:20Z</time>
      </trkpt>
      <trkpt lat="60.064650473016" lon="15.910214880451">
        <ele>139</ele>
        <time>2019-01-23T20:39:24Z</time>
      </trkpt>
      <trkpt lat="60.053016814911" lon="15.846371456893">
        <ele>215.6</ele>
        <time>2019-01-23T20:42:04Z</time>
      </trkpt>
      <trkpt lat="60.052764352083" lon="15.845490183927">
        <ele>215.2</ele>
        <time>2019-01-23T20:42:06Z</time>
      </trkpt>
      <trkpt lat="60.052492862342" lon="15.844635481584">
        <ele>214.8</ele>
        <time>2019-01-23T20:42:08Z</time>
      </trkpt>
      <trkpt lat="60.052207039552" lon="15.843808188054">
        <ele>214.2</ele>
        <time>2019-01-23T20:42:10Z</time>
      </trkpt>
      <trkpt lat="60.051912080491" lon="15.843006291681">
        <ele>213.8</ele>
        <time>2019-01-23T20:42:12Z</time>
      </trkpt>
      <trkpt lat="60.051605722046" lon="15.842219063633">
        <ele>213.4</ele>
        <time>2019-01-23T20:42:14Z</time>
      </trkpt>
      <trkpt lat="60.051446549765" lon="15.841833663871">
        <ele>213.2</ele>
        <time>2019-01-23T20:42:15Z</time>
      </trkpt>
      <trkpt lat="60.051119152751" lon="15.841088177685">
        <ele>212.8</ele>
        <time>2019-01-23T20:42:17Z</time>
      </trkpt>
      <trkpt lat="60.050780104896" lon="15.840376219099">
        <ele>212.2</ele>
        <time>2019-01-23T20:42:19Z</time>
      </trkpt>
      <trkpt lat="60.050607856851" lon="15.840030046629">
        <ele>212</ele>
        <time>2019-01-23T20:42:20Z</time>
      </trkpt>
      <trkpt lat="60.050270317738" lon="15.839365864873">
        <ele>211.2</ele>
        <time>2019-01-23T20:42:22Z</time>
      </trkpt>
      <trkpt lat="60.050100668082" lon="15.839045173379">
        <ele>210.8</ele>
        <time>2019-01-23T20:42:23Z</time>
      </trkpt>
      <trkpt lat="60.049748712101" lon="15.838422230571">
        <ele>210.2</ele>
        <time>2019-01-23T20:42:25Z</time>
      </trkpt>
      <trkpt lat="60.049571770192" lon="15.838118386696">
        <ele>209.8</ele>
        <time>2019-01-23T20:42:26Z</time>
      </trkpt>
      <trkpt lat="60.049213695424" lon="15.837528971488">
        <ele>208.8</ele>
        <time>2019-01-23T20:42:28Z</time>
      </trkpt>
      <trkpt lat="60.049034406583" lon="15.837246585277">
        <ele>208.4</ele>
        <time>2019-01-23T20:42:29Z</time>
      </trkpt>
      <trkpt lat="60.048673565788" lon="15.836684830339">
        <ele>207.4</ele>
        <time>2019-01-23T20:42:31Z</time>
      </trkpt>
      <trkpt lat="60.048495282775" lon="15.836404874879">
        <ele>207</ele>
        <time>2019-01-23T20:42:32Z</time>
      </trkpt>
      <trkpt lat="60.048136453636" lon="15.835849238728">
        <ele>206</ele>
        <time>2019-01-23T20:42:34Z</time>
      </trkpt>
      <trkpt lat="60.047774607013" lon="15.835291255645">
        <ele>204.8</ele>
        <time>2019-01-23T20:42:36Z</time>
      </trkpt>
      <trkpt lat="60.047406473965" lon="15.834728243422">
        <ele>203.8</ele>
        <time>2019-01-23T20:42:38Z</time>
      </trkpt>
      <trkpt lat="60.0470347367" lon="15.834166320846">
        <ele>202.6</ele>
        <time>2019-01-23T20:42:40Z</time>
      </trkpt>
      <trkpt lat="60.046660820141" lon="15.833591993058">
        <ele>201.6</ele>
        <time>2019-01-23T20:42:42Z</time>
      </trkpt>
      <trkpt lat="60.046279443691" lon="15.833013306682">
        <ele>201</ele>
        <time>2019-01-23T20:42:44Z</time>
      </trkpt>
      <trkpt lat="60.045897396689" lon="15.832426992777">
        <ele>200.4</ele>
        <time>2019-01-23T20:42:46Z</time>
      </trkpt>
      <trkpt lat="60.04551342185" lon="15.831824417986">
        <ele>200</ele>
        <time>2019-01-23T20:42:48Z</time>
      </trkpt>
      <trkpt lat="60.045137745092" lon="15.831210611449">
        <ele>199.4</ele>
        <time>2019-01-23T20:42:50Z</time>
      </trkpt>
      <trkpt lat="60.044953762387" lon="15.830903414814">
        <ele>199.2</ele>
        <time>2019-01-23T20:42:51Z</time>
      </trkpt>
      <trkpt lat="60.044591077574" lon="15.830279969092">
        <ele>199</ele>
        <time>2019-01-23T20:42:53Z</time>
      </trkpt>
      <trkpt lat="60.044240797973" lon="15.829650069307">
        <ele>198.8</ele>
        <time>2019-01-23T20:42:55Z</time>
      </trkpt>
      <trkpt lat="60.043891105105" lon="15.829019331332">
        <ele>198.6</ele>
        <time>2019-01-23T20:42:57Z</time>
      </trkpt>
      <trkpt lat="60.043543926807" lon="15.828381384923">
        <ele>198.2</ele>
        <time>2019-01-23T20:42:59Z</time>
      </trkpt>
      <trkpt lat="60.043196748509" lon="15.827723489592">
        <ele>198</ele>
        <time>2019-01-23T20:43:01Z</time>
      </trkpt>
      <trkpt lat="60.042849989306" lon="15.827046986443">
        <ele>197.8</ele>
        <time>2019-01-23T20:43:03Z</time>
      </trkpt>
      <trkpt lat="60.042507840148" lon="15.826363358679">
        <ele>197.6</ele>
        <time>2019-01-23T20:43:05Z</time>
      </trkpt>
      <trkpt lat="60.042172480329" lon="15.825678892725">
        <ele>197.4</ele>
        <time>2019-01-23T20:43:07Z</time>
      </trkpt>
      <trkpt lat="60.04184047327" lon="15.824982692111">
        <ele>197</ele>
        <time>2019-01-23T20:43:09Z</time>
      </trkpt>
      <trkpt lat="60.041675768935" lon="15.824630149397">
        <ele>196.8</ele>
        <time>2019-01-23T20:43:10Z</time>
      </trkpt>
      <trkpt lat="60.041355328898" lon="15.823923974322">
        <ele>196.2</ele>
        <time>2019-01-23T20:43:12Z</time>
      </trkpt>
      <trkpt lat="60.04119674335" lon="15.823566570106">
        <ele>196</ele>
        <time>2019-01-23T20:43:13Z</time>
      </trkpt>
      <trkpt lat="60.040885858679" lon="15.822849079466">
        <ele>195.4</ele>
        <time>2019-01-23T20:43:15Z</time>
      </trkpt>
      <trkpt lat="60.040580589881" lon="15.822122787831">
        <ele>194.8</ele>
        <time>2019-01-23T20:43:17Z</time>
      </trkpt>
      <trkpt lat="60.040270040486" lon="15.821393227255">
        <ele>194.4</ele>
        <time>2019-01-23T20:43:19Z</time>
      </trkpt>
      <trkpt lat="60.039959910186" lon="15.82066945019">
        <ele>194</ele>
        <time>2019-01-23T20:43:21Z</time>
      </trkpt>
      <trkpt lat="60.039809957995" lon="15.820312716526">
        <ele>193.8</ele>
        <time>2019-01-23T20:43:22Z</time>
      </trkpt>
      <trkpt lat="60.039512568183" lon="15.819602099044">
        <ele>193.2</ele>
        <time>2019-01-23T20:43:24Z</time>
      </trkpt>
      <trkpt lat="60.039214004905" lon="15.818891565381">
        <ele>192.8</ele>
        <time>2019-01-23T20:43:26Z</time>
      </trkpt>
      <trkpt lat="60.038910915401" lon="15.818191425274">
        <ele>192.2</ele>
        <time>2019-01-23T20:43:28Z</time>
      </trkpt>
      <trkpt lat="60.038606400974" lon="15.817497823049">
        <ele>191.8</ele>
        <time>2019-01-23T20:43:30Z</time>
      </trkpt>
      <trkpt lat="60.03830247328" lon="15.816803969367">
        <ele>191.6</ele>
        <time>2019-01-23T20:43:32Z</time>
      </trkpt>
      <trkpt lat="60.037998880862" lon="15.816123275268">
        <ele>191.4</ele>
        <time>2019-01-23T20:43:34Z</time>
      </trkpt>
      <trkpt lat="60.037693192969" lon="15.815458339141">
        <ele>190.8</ele>
        <time>2019-01-23T20:43:36Z</time>
      </trkpt>
      <trkpt lat="60.037540726208" lon="15.815130187756">
        <ele>190.4</ele>
        <time>2019-01-23T20:43:37Z</time>
      </trkpt>
      <trkpt lat="60.037231769374" lon="15.814473298253">
        <ele>189.4</ele>
        <time>2019-01-23T20:43:39Z</time>
      </trkpt>
      <trkpt lat="60.037076704224" lon="15.814143051393">
        <ele>189</ele>
        <time>2019-01-23T20:43:40Z</time>
      </trkpt>
      <trkpt lat="60.036763388802" lon="15.81349035284">
        <ele>188</ele>
        <time>2019-01-23T20:43:42Z</time>
      </trkpt>
      <trkpt lat="60.03660430034" lon="15.813167230595">
        <ele>187.6</ele>
        <time>2019-01-23T20:43:43Z</time>
      </trkpt>
      <trkpt lat="60.036284279398" lon="15.812526350521">
        <ele>186.6</ele>
        <time>2019-01-23T20:43:45Z</time>
      </trkpt>
      <trkpt lat="60.036122592547" lon="15.812208508873">
        <ele>186</ele>
        <time>2019-01-23T20:43:46Z</time>
      </trkpt>
      <trkpt lat="60.035794944076" lon="15.811567628799">
        <ele>185</ele>
        <time>2019-01-23T20:43:48Z</time>
      </trkpt>
      <trkpt lat="60.035463691388" lon="15.810936136453">
        <ele>184.2</ele>
        <time>2019-01-23T20:43:50Z</time>
      </trkpt>
      <trkpt lat="60.035297813587" lon="15.810625587058">
        <ele>183.8</ele>
        <time>2019-01-23T20:43:51Z</time>
      </trkpt>
      <trkpt lat="60.034966141804" lon="15.810009852684">
        <ele>182.6</ele>
        <time>2019-01-23T20:43:53Z</time>
      </trkpt>
      <trkpt lat="60.034632793641" lon="15.809396297604">
        <ele>181.6</ele>
        <time>2019-01-23T20:43:55Z</time>
      </trkpt>
      <trkpt lat="60.034292320863" lon="15.808790118596">
        <ele>181</ele>
        <time>2019-01-23T20:43:57Z</time>
      </trkpt>
      <trkpt lat="60.033945394022" lon="15.808188381995">
        <ele>180.2</ele>
        <time>2019-01-23T20:43:59Z</time>
      </trkpt>
      <trkpt lat="60.033594108593" lon="15.807605253212">
        <ele>179.4</ele>
        <time>2019-01-23T20:44:01Z</time>
      </trkpt>
      <trkpt lat="60.033417334322" lon="15.80732295082">
        <ele>179</ele>
        <time>2019-01-23T20:44:02Z</time>
      </trkpt>
      <trkpt lat="60.033064372513" lon="15.806760190054">
        <ele>178.4</ele>
        <time>2019-01-23T20:44:04Z</time>
      </trkpt>
      <trkpt lat="60.032886843871" lon="15.806477803843">
        <ele>178</ele>
        <time>2019-01-23T20:44:05Z</time>
      </trkpt>
      <trkpt lat="60.032533965881" lon="15.805907918462">
        <ele>177.4</ele>
        <time>2019-01-23T20:44:07Z</time>
      </trkpt>
      <trkpt lat="60.032180836434" lon="15.805350522112">
        <ele>176.6</ele>
        <time>2019-01-23T20:44:09Z</time>
      </trkpt>
      <trkpt lat="60.03182745553" lon="15.804783905672">
        <ele>175.8</ele>
        <time>2019-01-23T20:44:11Z</time>
      </trkpt>
      <trkpt lat="60.031649507793" lon="15.804503028203">
        <ele>175.6</ele>
        <time>2019-01-23T20:44:12Z</time>
      </trkpt>
      <trkpt lat="60.031128740346" lon="15.803656623941">
        <ele>174.6</ele>
        <time>2019-01-23T20:44:15Z</time>
      </trkpt>
      <trkpt lat="60.030605039234" lon="15.80281851776">
        <ele>173.6</ele>
        <time>2019-01-23T20:44:18Z</time>
      </trkpt>
      <trkpt lat="60.030431533904" lon="15.802540741594">
        <ele>173</ele>
        <time>2019-01-23T20:44:19Z</time>
      </trkpt>
      <trkpt lat="60.029903138928" lon="15.80173557628">
        <ele>172.2</ele>
        <time>2019-01-23T20:44:22Z</time>
      </trkpt>
      <trkpt lat="60.029364098939" lon="15.800984055126">
        <ele>172.2</ele>
        <time>2019-01-23T20:44:25Z</time>
      </trkpt>
      <trkpt lat="60.028815503584" lon="15.800297912792">
        <ele>172.4</ele>
        <time>2019-01-23T20:44:28Z</time>
      </trkpt>
      <trkpt lat="60.028249054782" lon="15.799652338854">
        <ele>173</ele>
        <time>2019-01-23T20:44:31Z</time>
      </trkpt>
      <trkpt lat="60.02764991657" lon="15.799065773492">
        <ele>173.8</ele>
        <time>2019-01-23T20:44:34Z</time>
      </trkpt>
      <trkpt lat="60.027042396458" lon="15.798547520615">
        <ele>173.8</ele>
        <time>2019-01-23T20:44:37Z</time>
      </trkpt>
      <trkpt lat="60.026449125576" lon="15.798106632675">
        <ele>172.8</ele>
        <time>2019-01-23T20:44:40Z</time>
      </trkpt>
      <trkpt lat="60.026062803805" lon="15.797833550373">
        <ele>172</ele>
        <time>2019-01-23T20:44:42Z</time>
      </trkpt>
      <trkpt lat="60.025682097907" lon="15.797554936017">
        <ele>170.8</ele>
        <time>2019-01-23T20:44:44Z</time>
      </trkpt>
      <trkpt lat="60.025298290706" lon="15.797276992213">
        <ele>169.4</ele>
        <time>2019-01-23T20:44:46Z</time>
      </trkpt>
      <trkpt lat="60.024916662799" lon="15.797006927395">
        <ele>168.4</ele>
        <time>2019-01-23T20:44:48Z</time>
      </trkpt>
      <trkpt lat="60.024540483127" lon="15.796729737962">
        <ele>167</ele>
        <time>2019-01-23T20:44:50Z</time>
      </trkpt>
      <trkpt lat="60.024172517717" lon="15.796456152746">
        <ele>165.6</ele>
        <time>2019-01-23T20:44:52Z</time>
      </trkpt>
      <trkpt lat="60.023808575619" lon="15.79617502382">
        <ele>164.2</ele>
        <time>2019-01-23T20:44:54Z</time>
      </trkpt>
      <trkpt lat="60.023448656833" lon="15.795867240452">
        <ele>163</ele>
        <time>2019-01-23T20:44:56Z</time>
      </trkpt>
      <trkpt lat="60.023097539042" lon="15.795529701339">
        <ele>161.8</ele>
        <time>2019-01-23T20:44:58Z</time>
      </trkpt>
      <trkpt lat="60.022755138427" lon="15.795163915223">
        <ele>160.4</ele>
        <time>2019-01-23T20:45:00Z</time>
      </trkpt>
      <trkpt lat="60.022421790264" lon="15.794765439697">
        <ele>159.4</ele>
        <time>2019-01-23T20:45:02Z</time>
      </trkpt>
      <trkpt lat="60.021942513222" lon="15.794117770284">
        <ele>158</ele>
        <time>2019-01-23T20:45:05Z</time>
      </trkpt>
      <trkpt lat="60.021490477355" lon="15.79339893854">
        <ele>156.6</ele>
        <time>2019-01-23T20:45:08Z</time>
      </trkpt>
      <trkpt lat="60.021060318247" lon="15.792623948066">
        <ele>155.8</ele>
        <time>2019-01-23T20:45:11Z</time>
      </trkpt>
      <trkpt lat="60.02092260363" lon="15.792356397818">
        <ele>155.4</ele>
        <time>2019-01-23T20:45:12Z</time>
      </trkpt>
      <trkpt lat="60.020522116448" lon="15.791514016868">
        <ele>154</ele>
        <time>2019-01-23T20:45:15Z</time>
      </trkpt>
      <trkpt lat="60.020145014767" lon="15.790629726418">
        <ele>152.8</ele>
        <time>2019-01-23T20:45:18Z</time>
      </trkpt>
      <trkpt lat="60.019757687168" lon="15.789690199247">
        <ele>151.4</ele>
        <time>2019-01-23T20:45:21Z</time>
      </trkpt>
      <trkpt lat="60.019362648221" lon="15.788724604367">
        <ele>150</ele>
        <time>2019-01-23T20:45:24Z</time>
      </trkpt>
      <trkpt lat="60.019102306407" lon="15.788092190012">
        <ele>149</ele>
        <time>2019-01-23T20:45:26Z</time>
      </trkpt>
      <trkpt lat="60.01884473062" lon="15.787483580253">
        <ele>147.8</ele>
        <time>2019-01-23T20:45:28Z</time>
      </trkpt>
      <trkpt lat="60.018582209512" lon="15.78689290776">
        <ele>146.4</ele>
        <time>2019-01-23T20:45:30Z</time>
      </trkpt>
      <trkpt lat="60.018310384495" lon="15.786328470614">
        <ele>145.2</ele>
        <time>2019-01-23T20:45:32Z</time>
      </trkpt>
      <trkpt lat="60.018022717687" lon="15.785795800869">
        <ele>144.2</ele>
        <time>2019-01-23T20:45:34Z</time>
      </trkpt>
      <trkpt lat="60.017723819133" lon="15.785292886869">
        <ele>143</ele>
        <time>2019-01-23T20:45:36Z</time>
      </trkpt>
      <trkpt lat="60.017417209231" lon="15.784823584288">
        <ele>142</ele>
        <time>2019-01-23T20:45:38Z</time>
      </trkpt>
      <trkpt lat="60.017115460831" lon="15.784398538139">
        <ele>140.6</ele>
        <time>2019-01-23T20:45:40Z</time>
      </trkpt>
      <trkpt lat="60.016814382983" lon="15.784009282703">
        <ele>139.6</ele>
        <time>2019-01-23T20:45:42Z</time>
      </trkpt>
      <trkpt lat="60.016508275995" lon="15.783656488532">
        <ele>138.2</ele>
        <time>2019-01-23T20:45:44Z</time>
      </trkpt>
      <trkpt lat="60.016202839559" lon="15.783338814522">
        <ele>137</ele>
        <time>2019-01-23T20:45:46Z</time>
      </trkpt>
      <trkpt lat="60.015883153893" lon="15.783054500474">
        <ele>135.8</ele>
        <time>2019-01-23T20:45:48Z</time>
      </trkpt>
      <trkpt lat="60.015387699784" lon="15.782682930847">
        <ele>134.4</ele>
        <time>2019-01-23T20:45:51Z</time>
      </trkpt>
      <trkpt lat="60.015049657757" lon="15.78246139723">
        <ele>133.4</ele>
        <time>2019-01-23T20:45:53Z</time>
      </trkpt>
      <trkpt lat="60.014516401279" lon="15.782189739851">
        <ele>132.2</ele>
        <time>2019-01-23T20:45:56Z</time>
      </trkpt>
      <trkpt lat="60.013954394884" lon="15.781971558994">
        <ele>130.8</ele>
        <time>2019-01-23T20:45:59Z</time>
      </trkpt>
      <trkpt lat="60.013569665674" lon="15.781865863235">
        <ele>129.8</ele>
        <time>2019-01-23T20:46:01Z</time>
      </trkpt>
      <trkpt lat="60.013188708319" lon="15.781793443619">
        <ele>128.6</ele>
        <time>2019-01-23T20:46:03Z</time>
      </trkpt>
      <trkpt lat="60.012809175887" lon="15.781761340942">
        <ele>127.6</ele>
        <time>2019-01-23T20:46:05Z</time>
      </trkpt>
      <trkpt lat="60.01243760626" lon="15.781766034806">
        <ele>126.2</ele>
        <time>2019-01-23T20:46:07Z</time>
      </trkpt>
      <trkpt lat="60.012068048289" lon="15.781803250442">
        <ele>125</ele>
        <time>2019-01-23T20:46:09Z</time>
      </trkpt>
      <trkpt lat="60.011698071223" lon="15.781870221823">
        <ele>124</ele>
        <time>2019-01-23T20:46:11Z</time>
      </trkpt>
      <trkpt lat="60.011140255778" lon="15.782045487352">
        <ele>122.6</ele>
        <time>2019-01-23T20:46:14Z</time>
      </trkpt>
      <trkpt lat="60.010580931591" lon="15.782307254089">
        <ele>121.6</ele>
        <time>2019-01-23T20:46:17Z</time>
      </trkpt>
      <trkpt lat="60.010221934814" lon="15.782531637552">
        <ele>120.4</ele>
        <time>2019-01-23T20:46:19Z</time>
      </trkpt>
      <trkpt lat="60.009697311693" lon="15.782908236319">
        <ele>119.2</ele>
        <time>2019-01-23T20:46:22Z</time>
      </trkpt>
      <trkpt lat="60.009523387268" lon="15.78304729204">
        <ele>118.8</ele>
        <time>2019-01-23T20:46:23Z</time>
      </trkpt>
      <trkpt lat="60.009179226454" lon="15.783336886685">
        <ele>118</ele>
        <time>2019-01-23T20:46:25Z</time>
      </trkpt>
      <trkpt lat="60.008669187839" lon="15.783794622244">
        <ele>117.4</ele>
        <time>2019-01-23T20:46:28Z</time>
      </trkpt>
      <trkpt lat="60.008498867631" lon="15.783944658254">
        <ele>117</ele>
        <time>2019-01-23T20:46:29Z</time>
      </trkpt>
      <trkpt lat="60.008007855929" lon="15.784403064365">
        <ele>115.8</ele>
        <time>2019-01-23T20:46:32Z</time>
      </trkpt>
      <trkpt lat="60.007531344914" lon="15.78486867891">
        <ele>114.8</ele>
        <time>2019-01-23T20:46:35Z</time>
      </trkpt>
      <trkpt lat="60.007376698859" lon="15.785027348277">
        <ele>114.6</ele>
        <time>2019-01-23T20:46:36Z</time>
      </trkpt>
      <trkpt lat="60.006917370739" lon="15.785525987508">
        <ele>113.8</ele>
        <time>2019-01-23T20:46:39Z</time>
      </trkpt>
      <trkpt lat="60.006763562874" lon="15.7856993252">
        <ele>113.6</ele>
        <time>2019-01-23T20:46:40Z</time>
      </trkpt>
      <trkpt lat="60.006297110139" lon="15.786225540882">
        <ele>113</ele>
        <time>2019-01-23T20:46:43Z</time>
      </trkpt>
      <trkpt lat="60.005987901848" lon="15.786587303686">
        <ele>112.6</ele>
        <time>2019-01-23T20:46:45Z</time>
      </trkpt>
      <trkpt lat="60.005556569274" lon="15.787121063078">
        <ele>111.8</ele>
        <time>2019-01-23T20:46:48Z</time>
      </trkpt>
      <trkpt lat="60.005288516112" lon="15.787441670753">
        <ele>111.2</ele>
        <time>2019-01-23T20:46:50Z</time>
      </trkpt>
      <trkpt lat="60.004903200169" lon="15.787932179541">
        <ele>110.2</ele>
        <time>2019-01-23T20:46:53Z</time>
      </trkpt>
      <trkpt lat="60.00477654966" lon="15.788101493921">
        <ele>110</ele>
        <time>2019-01-23T20:46:54Z</time>
      </trkpt>
      <trkpt lat="60.00429794317" lon="15.788740613796">
        <ele>109.2</ele>
        <time>2019-01-23T20:46:58Z</time>
      </trkpt>
      <trkpt lat="60.004068782024" lon="15.789052252838">
        <ele>108.8</ele>
        <time>2019-01-23T20:47:00Z</time>
      </trkpt>
      <trkpt lat="60.003846913131" lon="15.789347379537">
        <ele>107.6</ele>
        <time>2019-01-23T20:47:02Z</time>
      </trkpt>
      <trkpt lat="60.003739457173" lon="15.789483501593">
        <ele>106.4</ele>
        <time>2019-01-23T20:47:03Z</time>
      </trkpt>
      <trkpt lat="60.003632839405" lon="15.789621300029">
        <ele>105.2</ele>
        <time>2019-01-23T20:47:04Z</time>
      </trkpt>
      <trkpt lat="60.003434523651" lon="15.78987602597">
        <ele>103.6</ele>
        <time>2019-01-23T20:47:06Z</time>
      </trkpt>
      <trkpt lat="60.003284236184" lon="15.790066714195">
        <ele>102.2</ele>
        <time>2019-01-23T20:47:08Z</time>
      </trkpt>
      <trkpt lat="60.003221371934" lon="15.790115496853">
        <ele>101.6</ele>
        <time>2019-01-23T20:47:09Z</time>
      </trkpt>
      <trkpt lat="60.003159429693" lon="15.790144414408">
        <ele>101</ele>
        <time>2019-01-23T20:47:10Z</time>
      </trkpt>
      <trkpt lat="60.003040406713" lon="15.790224545372">
        <ele>100</ele>
        <time>2019-01-23T20:47:12Z</time>
      </trkpt>
      <trkpt lat="60.002985421449" lon="15.790301658852">
        <ele>99.8</ele>
        <time>2019-01-23T20:47:13Z</time>
      </trkpt>
      <trkpt lat="60.002775622492" lon="15.790651016444">
        <ele>99.4</ele>
        <time>2019-01-23T20:47:16Z</time>
      </trkpt>
      <trkpt lat="60.002322580797" lon="15.791092994031">
        <ele>99.6</ele>
        <time>2019-01-23T20:47:20Z</time>
      </trkpt>
      <trkpt lat="60.001778763125" lon="15.791615856953">
        <ele>99.6</ele>
        <time>2019-01-23T20:47:24Z</time>
      </trkpt>
      <trkpt lat="60.001370732233" lon="15.79205867273">
        <ele>99.2</ele>
        <time>2019-01-23T20:47:27Z</time>
      </trkpt>
      <trkpt lat="60.000988098498" lon="15.792619924754">
        <ele>98.8</ele>
        <time>2019-01-23T20:47:30Z</time>
      </trkpt>
      <trkpt lat="60.000871170993" lon="15.792835171946">
        <ele>98.6</ele>
        <time>2019-01-23T20:47:31Z</time>
      </trkpt>
      <trkpt lat="60.000564393453" lon="15.793542855763">
        <ele>98</ele>
        <time>2019-01-23T20:47:34Z</time>
      </trkpt>
      <trkpt lat="60.000399856756" lon="15.794045769763">
        <ele>97.6</ele>
        <time>2019-01-23T20:47:36Z</time>
      </trkpt>
      <trkpt lat="60.000165582651" lon="15.79507280397">
        <ele>96.6</ele>
        <time>2019-01-23T20:47:40Z</time>
      </trkpt>
      <trkpt lat="60.000034405916" lon="15.795963883759">
        <ele>95.4</ele>
        <time>2019-01-23T20:47:44Z</time>
      </trkpt>
      <trkpt lat="59.999978079548" lon="15.796315253007">
        <ele>94.8</ele>
        <time>2019-01-23T20:47:46Z</time>
      </trkpt>
      <trkpt lat="59.999880933327" lon="15.79657232588">
        <ele>94.4</ele>
        <time>2019-01-23T20:47:48Z</time>
      </trkpt>
      <trkpt lat="59.999805831503" lon="15.796815233342">
        <ele>94.4</ele>
        <time>2019-01-23T20:47:50Z</time>
      </trkpt>
      <trkpt lat="59.99977674631" lon="15.797861797376">
        <ele>95</ele>
        <time>2019-01-23T20:47:55Z</time>
      </trkpt>
      <trkpt lat="59.99964850324" lon="15.798908277591">
        <ele>95.4</ele>
        <time>2019-01-23T20:47:59Z</time>
      </trkpt>
      <trkpt lat="59.999605084998" lon="15.799187394861">
        <ele>95.6</ele>
        <time>2019-01-23T20:48:00Z</time>
      </trkpt>
      <trkpt lat="59.999458485567" lon="15.800037319521">
        <ele>96.2</ele>
        <time>2019-01-23T20:48:03Z</time>
      </trkpt>
      <trkpt lat="59.999285818427" lon="15.800916245555">
        <ele>96.4</ele>
        <time>2019-01-23T20:48:06Z</time>
      </trkpt>
      <trkpt lat="59.999221529254" lon="15.801210282607">
        <ele>96.6</ele>
        <time>2019-01-23T20:48:07Z</time>
      </trkpt>
      <trkpt lat="59.999003599854" lon="15.80207671961">
        <ele>96.8</ele>
        <time>2019-01-23T20:48:10Z</time>
      </trkpt>
      <trkpt lat="59.998732780665" lon="15.802926811908">
        <ele>96.2</ele>
        <time>2019-01-23T20:48:13Z</time>
      </trkpt>
      <trkpt lat="59.998432038093" lon="15.803707250617">
        <ele>95.4</ele>
        <time>2019-01-23T20:48:16Z</time>
      </trkpt>
      <trkpt lat="59.998221736222" lon="15.804178648673">
        <ele>94.2</ele>
        <time>2019-01-23T20:48:18Z</time>
      </trkpt>
      <trkpt lat="59.998001124614" lon="15.804607299039">
        <ele>93.2</ele>
        <time>2019-01-23T20:48:20Z</time>
      </trkpt>
      <trkpt lat="59.997649503909" lon="15.8052123884">
        <ele>91.8</ele>
        <time>2019-01-23T20:48:23Z</time>
      </trkpt>
      <trkpt lat="59.997287573467" lon="15.805757714814">
        <ele>91</ele>
        <time>2019-01-23T20:48:26Z</time>
      </trkpt>
      <trkpt lat="59.996803015828" lon="15.806423740588">
        <ele>91.2</ele>
        <time>2019-01-23T20:48:30Z</time>
      </trkpt>
      <trkpt lat="59.996380987163" lon="15.806966803889">
        <ele>92.2</ele>
        <time>2019-01-23T20:48:34Z</time>
      </trkpt>
      <trkpt lat="59.99606021185" lon="15.807370057098">
        <ele>93</ele>
        <time>2019-01-23T20:48:38Z</time>
      </trkpt>
      <trkpt lat="59.995719487615" lon="15.807771466289">
        <ele>93.6</ele>
        <time>2019-01-23T20:48:44Z</time>
      </trkpt>
      <trkpt lat="59.99548186075" lon="15.808095762">
        <ele>93.8</ele>
        <time>2019-01-23T20:48:50Z</time>
      </trkpt>
      <trkpt lat="59.995375159163" lon="15.808154770576">
        <ele>94</ele>
        <time>2019-01-23T20:48:53Z</time>
      </trkpt>
      <trkpt lat="59.995227553904" lon="15.808185867425">
        <ele>94.2</ele>
        <time>2019-01-23T20:48:56Z</time>
      </trkpt>
      <trkpt lat="59.995125965276" lon="15.808289048614">
        <ele>94.2</ele>
        <time>2019-01-23T20:48:58Z</time>
      </trkpt>
      <trkpt lat="59.994992273971" lon="15.808551988817">
        <ele>94.4</ele>
        <time>2019-01-23T20:49:01Z</time>
      </trkpt>
      <trkpt lat="59.994541243932" lon="15.809108966072">
        <ele>94</ele>
        <time>2019-01-23T20:49:07Z</time>
      </trkpt>
      <trkpt lat="59.994106558598" lon="15.809656304142">
        <ele>93.6</ele>
        <time>2019-01-23T20:49:12Z</time>
      </trkpt>
      <trkpt lat="59.993846887336" lon="15.809976744179">
        <ele>93</ele>
        <time>2019-01-23T20:49:15Z</time>
      </trkpt>
      <trkpt lat="59.99351881977" lon="15.810367089262">
        <ele>91.8</ele>
        <time>2019-01-23T20:49:19Z</time>
      </trkpt>
      <trkpt lat="59.993169378359" lon="15.81077294086">
        <ele>90.6</ele>
        <time>2019-01-23T20:49:23Z</time>
      </trkpt>
      <trkpt lat="59.992824211717" lon="15.811127830506">
        <ele>89.4</ele>
        <time>2019-01-23T20:49:27Z</time>
      </trkpt>
      <trkpt lat="59.992556661469" lon="15.811368139579">
        <ele>88.2</ele>
        <time>2019-01-23T20:49:31Z</time>
      </trkpt>
      <trkpt lat="59.992322387364" lon="15.811551367913">
        <ele>87</ele>
        <time>2019-01-23T20:49:35Z</time>
      </trkpt>
      <trkpt lat="59.99209724953" lon="15.811756473006">
        <ele>86</ele>
        <time>2019-01-23T20:49:40Z</time>
      </trkpt>
      <trkpt lat="59.991852246593" lon="15.81199250731">
        <ele>85.2</ele>
        <time>2019-01-23T20:49:46Z</time>
      </trkpt>
      <trkpt lat="59.991760380969" lon="15.812088228608">
        <ele>85</ele>
        <time>2019-01-23T20:49:48Z</time>
      </trkpt>
      <trkpt lat="59.99161529028" lon="15.812210604348">
        <ele>84.6</ele>
        <time>2019-01-23T20:49:51Z</time>
      </trkpt>
      <trkpt lat="59.991515126575" lon="15.812241785016">
        <ele>84.2</ele>
        <time>2019-01-23T20:49:53Z</time>
      </trkpt>
      <trkpt lat="59.991471540695" lon="15.812237929342">
        <ele>83.8</ele>
        <time>2019-01-23T20:49:54Z</time>
      </trkpt>
      <trkpt lat="59.991397779975" lon="15.812216974592">
        <ele>83.4</ele>
        <time>2019-01-23T20:49:56Z</time>
      </trkpt>
      <trkpt lat="59.991287390352" lon="15.812249496364">
        <ele>82.8</ele>
        <time>2019-01-23T20:49:59Z</time>
      </trkpt>
      <trkpt lat="59.991159566377" lon="15.812427611739">
        <ele>82.4</ele>
        <time>2019-01-23T20:50:02Z</time>
      </trkpt>
      <trkpt lat="59.99106962859" lon="15.812526099064">
        <ele>82.2</ele>
        <time>2019-01-23T20:50:04Z</time>
      </trkpt>
      <trkpt lat="59.990857901796" lon="15.812691138675">
        <ele>81.6</ele>
        <time>2019-01-23T20:50:07Z</time>
      </trkpt>
      <trkpt lat="59.990404357187" lon="15.812995401645">
        <ele>81.2</ele>
        <time>2019-01-23T20:50:11Z</time>
      </trkpt>
      <trkpt lat="59.989906891422" lon="15.813342999038">
        <ele>81.8</ele>
        <time>2019-01-23T20:50:15Z</time>
      </trkpt>
      <trkpt lat="59.989553761975" lon="15.813608118535">
        <ele>82.6</ele>
        <time>2019-01-23T20:50:19Z</time>
      </trkpt>
      <trkpt lat="59.9895013751" lon="15.813666540378">
        <ele>82.8</ele>
        <time>2019-01-23T20:50:20Z</time>
      </trkpt>
      <trkpt lat="59.989441779791" lon="15.813849181979">
        <ele>83</ele>
        <time>2019-01-23T20:50:22Z</time>
      </trkpt>
      <trkpt lat="59.989456448116" lon="15.81412737724">
        <ele>83.2</ele>
        <time>2019-01-23T20:50:24Z</time>
      </trkpt>
      <trkpt lat="59.989548816654" lon="15.814682091382">
        <ele>83.6</ele>
        <time>2019-01-23T20:50:27Z</time>
      </trkpt>
      <trkpt lat="59.989677311181" lon="15.81522959709">
        <ele>84.8</ele>
        <time>2019-01-23T20:50:30Z</time>
      </trkpt>
      <trkpt lat="59.989769009167" lon="15.81554391834">
        <ele>86</ele>
        <time>2019-01-23T20:50:32Z</time>
      </trkpt>
      <trkpt lat="59.989816283083" lon="15.815798644281">
        <ele>86.8</ele>
        <time>2019-01-23T20:50:34Z</time>
      </trkpt>
      <trkpt lat="59.989785605329" lon="15.81600157008">
        <ele>87</ele>
        <time>2019-01-23T20:50:36Z</time>
      </trkpt>
      <trkpt lat="59.989684184339" lon="15.816122604716">
        <ele>87.2</ele>
        <time>2019-01-23T20:50:38Z</time>
      </trkpt>
      <trkpt lat="59.98934966271" lon="15.81630667124">
        <ele>87.4</ele>
        <time>2019-01-23T20:50:42Z</time>
      </trkpt>
      <trkpt lat="59.988854962972" lon="15.816611269486">
        <ele>86</ele>
        <time>2019-01-23T20:50:48Z</time>
      </trkpt>
      <trkpt lat="59.988722109857" lon="15.81668553312">
        <ele>84.8</ele>
        <time>2019-01-23T20:50:50Z</time>
      </trkpt>
      <trkpt lat="59.988632423527" lon="15.816739344918">
        <ele>83.6</ele>
        <time>2019-01-23T20:50:52Z</time>
      </trkpt>
      <trkpt lat="59.988594788796" lon="15.816758288012">
        <ele>83</ele>
        <time>2019-01-23T20:50:53Z</time>
      </trkpt>
      <trkpt lat="59.988484566811" lon="15.816929614048">
        <ele>82.6</ele>
        <time>2019-01-23T20:50:55Z</time>
      </trkpt>
      <trkpt lat="59.988421367285" lon="15.817222980548">
        <ele>82.6</ele>
        <time>2019-01-23T20:50:57Z</time>
      </trkpt>
      <trkpt lat="59.988314078965" lon="15.818143313168">
        <ele>83.4</ele>
        <time>2019-01-23T20:51:02Z</time>
      </trkpt>
      <trkpt lat="59.98824325191" lon="15.818848314777">
        <ele>84.8</ele>
        <time>2019-01-23T20:51:06Z</time>
      </trkpt>
      <trkpt lat="59.988234702372" lon="15.81935684465">
        <ele>85.8</ele>
        <time>2019-01-23T20:51:09Z</time>
      </trkpt>
      <trkpt lat="59.988348612393" lon="15.820265191153">
        <ele>86.6</ele>
        <time>2019-01-23T20:51:15Z</time>
      </trkpt>
      <trkpt lat="59.988446764442" lon="15.820647908707">
        <ele>86</ele>
        <time>2019-01-23T20:51:21Z</time>
      </trkpt>
      <trkpt lat="59.98847626873" lon="15.820682106859">
        <ele>86</ele>
        <time>2019-01-23T20:51:22Z</time>
      </trkpt>
      <trkpt lat="59.988586490715" lon="15.820761315814">
        <ele>86</ele>
        <time>2019-01-23T20:51:24Z</time>
      </trkpt>
      <trkpt lat="59.988995275978" lon="15.821283172908">
        <ele>86.6</ele>
        <time>2019-01-23T20:51:30Z</time>
      </trkpt>
      <trkpt lat="59.989101977565" lon="15.821425246113">
        <ele>86.8</ele>
        <time>2019-01-23T20:51:32Z</time>
      </trkpt>
      <trkpt lat="59.989477486685" lon="15.821759013371">
        <ele>87.8</ele>
        <time>2019-01-23T20:51:38Z</time>
      </trkpt>
      <trkpt lat="59.989527023714" lon="15.821815004463">
        <ele>88</ele>
        <time>2019-01-23T20:51:39Z</time>
      </trkpt>
      <trkpt lat="59.989591145249" lon="15.821965543387">
        <ele>88.2</ele>
        <time>2019-01-23T20:51:41Z</time>
      </trkpt>
      <trkpt lat="59.989606903221" lon="15.82218992685">
        <ele>88.2</ele>
        <time>2019-01-23T20:51:43Z</time>
      </trkpt>
      <trkpt lat="59.98957765039" lon="15.822861400859">
        <ele>86.6</ele>
        <time>2019-01-23T20:51:48Z</time>
      </trkpt>
      <trkpt lat="59.989566921558" lon="15.8230742173">
        <ele>85.2</ele>
        <time>2019-01-23T20:51:50Z</time>
      </trkpt>
      <trkpt lat="59.989543368419" lon="15.823235317418">
        <ele>83.8</ele>
        <time>2019-01-23T20:51:53Z</time>
      </trkpt>
      <trkpt lat="59.989539261288" lon="15.823243112585">
        <ele>83.6</ele>
        <time>2019-01-23T20:51:54Z</time>
      </trkpt>
      <trkpt lat="59.989536998175" lon="15.823345120308">
        <ele>82.8</ele>
        <time>2019-01-23T20:52:32Z</time>
      </trkpt>
      <trkpt lat="59.989535573252" lon="15.823426927652">
        <ele>82.2</ele>
        <time>2019-01-23T20:52:33Z</time>
      </trkpt>
      <trkpt lat="59.989528783913" lon="15.823504124951">
        <ele>81.8</ele>
        <time>2019-01-23T20:52:34Z</time>
      </trkpt>
      <trkpt lat="59.98951143338" lon="15.823565480459">
        <ele>81.6</ele>
        <time>2019-01-23T20:52:35Z</time>
      </trkpt>
      <trkpt lat="59.989445132551" lon="15.82359221872">
        <ele>81.2</ele>
        <time>2019-01-23T20:52:37Z</time>
      </trkpt>
      <trkpt lat="59.989349830348" lon="15.823531533764">
        <ele>81.2</ele>
        <time>2019-01-23T20:52:39Z</time>
      </trkpt>
      <trkpt lat="59.988921766715" lon="15.823158455395">
        <ele>81.6</ele>
        <time>2019-01-23T20:52:45Z</time>
      </trkpt>
      <trkpt lat="59.988704172591" lon="15.823047646677">
        <ele>81.6</ele>
        <time>2019-01-23T20:52:48Z</time>
      </trkpt>
      <trkpt lat="59.9882440901" lon="15.82304571884">
        <ele>80.8</ele>
        <time>2019-01-23T20:52:54Z</time>
      </trkpt>
      <trkpt lat="59.988130012441" lon="15.823065164848">
        <ele>80.6</ele>
        <time>2019-01-23T20:52:56Z</time>
      </trkpt>
      <trkpt lat="59.988041415758" lon="15.823033900361">
        <ele>80.4</ele>
        <time>2019-01-23T20:52:59Z</time>
      </trkpt>
      <trkpt lat="59.988014258402" lon="15.822886211283">
        <ele>80.4</ele>
        <time>2019-01-23T20:53:01Z</time>
      </trkpt>
      <trkpt lat="59.988008391072" lon="15.822483628626">
        <ele>80.8</ele>
        <time>2019-01-23T20:53:05Z</time>
      </trkpt>
      <trkpt lat="59.987938821302" lon="15.822354882642">
        <ele>81</ele>
        <time>2019-01-23T20:53:07Z</time>
      </trkpt>
      <trkpt lat="59.987568089865" lon="15.822141647106">
        <ele>81.6</ele>
        <time>2019-01-23T20:53:13Z</time>
      </trkpt>
      <trkpt lat="59.98717288328" lon="15.821964202283">
        <ele>81.2</ele>
        <time>2019-01-23T20:53:19Z</time>
      </trkpt>
      <trkpt lat="59.986760745257" lon="15.821760354475">
        <ele>80</ele>
        <time>2019-01-23T20:53:25Z</time>
      </trkpt>
      <trkpt lat="59.986698383921" lon="15.821726743056">
        <ele>79.6</ele>
        <time>2019-01-23T20:53:26Z</time>
      </trkpt>
      <trkpt lat="59.986550694843" lon="15.82167192543">
        <ele>78.6</ele>
        <time>2019-01-23T20:53:29Z</time>
      </trkpt>
      <trkpt lat="59.986517167243" lon="15.821701094442">
        <ele>78.6</ele>
        <time>2019-01-23T20:53:30Z</time>
      </trkpt>
      <trkpt lat="59.986498727063" lon="15.821760019199">
        <ele>78.4</ele>
        <time>2019-01-23T20:53:31Z</time>
      </trkpt>
      <trkpt lat="59.986440389039" lon="15.822375334478">
        <ele>78.6</ele>
        <time>2019-01-23T20:53:37Z</time>
      </trkpt>
      <trkpt lat="59.986413902235" lon="15.822624612184">
        <ele>78.4</ele>
        <time>2019-01-23T20:53:41Z</time>
      </trkpt>
      <trkpt lat="59.986352462908" lon="15.822660738173">
        <ele>78.2</ele>
        <time>2019-01-23T20:53:44Z</time>
      </trkpt>
      <trkpt lat="59.986164875986" lon="15.822582786503">
        <ele>77.4</ele>
        <time>2019-01-23T20:53:50Z</time>
      </trkpt>
      <trkpt lat="59.98607653076" lon="15.822601142864">
        <ele>76.6</ele>
        <time>2019-01-23T20:53:54Z</time>
      </trkpt>
      <trkpt lat="59.986069154688" lon="15.822670880272">
        <ele>76.4</ele>
        <time>2019-01-23T20:53:57Z</time>
      </trkpt>
      <trkpt lat="59.986074351466" lon="15.822673813937">
        <ele>76.4</ele>
        <time>2019-01-23T20:53:59Z</time>
      </trkpt>
    </trkseg>
  </trk>
</gpx>